Terminal Aerodrome Forecast
Issued by NWS

Home | Current Version | Previous Version | Text Only | Print | Product List | Glossary On
Versions: 1 2 3 4 5 6 7 8 9 10 11 12 13 14 15
422
FTUS46 KMTR 272340
TAFOAK
TAF
KOAK 272340Z 2800/0106 28012KT P6SM FEW020
     FM280500 30007KT P6SM SKC
     FM281300 VRB04KT P6SM SKC
     FM282200 29009KT P6SM SKC
     FM010400 30005KT P6SM SKC=

USA.gov is the U.S. government's official web portal to all federal, state and local government web resources and services.